Time;durP1;ratioP1;P1;durP2;ratioP2;P2;SDS_P1;SDS_P2;PMS_P1;PMS_P2;Temp;Humidity;BMP_temperature;BMP_pressure;BME280_temperature;BME280_humidity;BME280_pressure;Samples;Min_cycle;Max_cycle;Signal;HPM_P1;HPM_P2
2023/03/06 00:00:49;;;;;;;1.70;1.20;;;5.30;78.00;;;;;;5105346;27;20042;-64
2023/03/06 00:03:15;;;;;;;1.25;1.00;;;5.30;78.10;;;;;;5100507;27;20056;-64
2023/03/06 00:05:41;;;;;;;1.27;1.17;;;5.20;78.10;;;;;;5094468;28;20027;-65
2023/03/06 00:08:06;;;;;;;2.25;1.13;;;5.20;78.20;;;;;;5097598;28;20021;-67
2023/03/06 00:10:32;;;;;;;2.53;1.35;;;5.20;78.30;;;;;;5106077;27;20015;-67
2023/03/06 00:13:01;;;;;;;1.95;1.42;;;5.20;78.30;;;;;;5099374;27;20492;-66
2023/03/06 00:15:27;;;;;;;1.45;1.00;;;5.20;78.30;;;;;;5096135;28;20107;-66
2023/03/06 00:17:54;;;;;;;1.27;1.00;;;5.10;78.40;;;;;;5096852;27;20024;-67
2023/03/06 00:20:20;;;;;;;1.40;1.30;;;5.00;78.50;;;;;;5099609;27;20106;-66
2023/03/06 00:22:45;;;;;;;1.63;1.20;;;5.00;78.60;;;;;;5098113;28;20028;-65
2023/03/06 00:25:14;;;;;;;1.30;1.10;;;5.10;78.60;;;;;;5098614;28;20800;-68
2023/03/06 00:27:40;;;;;;;1.13;1.02;;;5.10;78.60;;;;;;5103548;27;20027;-66
2023/03/06 00:30:07;;;;;;;3.20;1.13;;;5.00;78.60;;;;;;5104575;27;20028;-66
2023/03/06 00:32:32;;;;;;;0.98;0.90;;;5.00;78.60;;;;;;5100723;27;20024;-66
2023/03/06 00:34:58;;;;;;;1.50;1.15;;;5.00;78.70;;;;;;5100308;27;20543;-67
2023/03/06 00:37:24;;;;;;;1.40;1.30;;;5.00;78.70;;;;;;5103676;27;20027;-66
2023/03/06 00:39:50;;;;;;;1.50;1.35;;;5.00;78.70;;;;;;5103264;28;20099;-67
2023/03/06 00:42:16;;;;;;;1.30;1.17;;;4.90;78.80;;;;;;5098987;28;20032;-67
2023/03/06 00:44:42;;;;;;;1.55;1.10;;;4.90;79.50;;;;;;5098861;28;20049;-66
2023/03/06 00:47:08;;;;;;;1.25;0.90;;;4.90;79.00;;;;;;5099980;27;20594;-66
2023/03/06 00:49:34;;;;;;;1.10;1.00;;;4.80;78.90;;;;;;5096229;27;20032;-66
2023/03/06 00:52:00;;;;;;;1.35;1.00;;;4.80;79.00;;;;;;5097680;27;20517;-67
2023/03/06 00:54:26;;;;;;;0.90;0.90;;;4.70;79.20;;;;;;5100870;27;20023;-67
2023/03/06 00:56:51;;;;;;;1.55;0.95;;;4.70;79.30;;;;;;5102905;27;20031;-66
2023/03/06 00:59:17;;;;;;;1.20;1.10;;;4.70;79.40;;;;;;5100096;28;20682;-67
2023/03/06 01:01:42;;;;;;;1.38;1.08;;;4.70;79.40;;;;;;5099095;27;20508;-66
2023/03/06 01:04:09;;;;;;;1.80;1.20;;;4.60;79.40;;;;;;5104940;27;20023;-66
2023/03/06 01:06:35;;;;;;;1.58;1.20;;;4.60;79.40;;;;;;5103768;28;20099;-66
2023/03/06 01:09:00;;;;;;;1.60;1.08;;;4.60;79.40;;;;;;5097581;28;20114;-67
2023/03/06 01:11:26;;;;;;;1.80;1.10;;;4.60;79.40;;;;;;5096954;27;20515;-66
2023/03/06 01:13:51;;;;;;;2.10;1.40;;;4.60;79.50;;;;;;5094711;28;20032;-67
2023/03/06 01:16:20;;;;;;;2.95;1.85;;;4.50;79.50;;;;;;5107469;27;20477;-65
2023/03/06 01:18:45;;;;;;;2.55;1.92;;;4.50;79.70;;;;;;5097743;28;20031;-66
2023/03/06 01:21:12;;;;;;;3.22;1.80;;;4.50;79.70;;;;;;5098710;27;20509;-66
2023/03/06 01:23:37;;;;;;;2.22;1.50;;;4.50;79.70;;;;;;5101618;27;20032;-65
2023/03/06 01:26:04;;;;;;;2.28;1.55;;;4.50;79.60;;;;;;5101006;27;20031;-66
2023/03/06 01:28:30;;;;;;;2.50;1.50;;;4.50;79.70;;;;;;5099521;28;20019;-65
2023/03/06 01:30:55;;;;;;;1.70;1.40;;;4.50;79.60;;;;;;5098565;28;20398;-66
2023/03/06 01:33:21;;;;;;;2.22;1.55;;;4.50;79.60;;;;;;5100241;28;20081;-66
2023/03/06 01:35:46;;;;;;;1.40;1.30;;;4.50;79.60;;;;;;5096966;28;20385;-66
2023/03/06 01:38:12;;;;;;;2.50;1.70;;;4.60;79.60;;;;;;5097407;28;20035;-66
2023/03/06 01:40:39;;;;;;;2.05;1.48;;;4.50;79.50;;;;;;5100034;28;20020;-66
2023/03/06 01:43:30;;;;;;;1.65;1.55;;;4.60;79.60;;;;;;5104279;28;20028;-66
2023/03/06 01:46:20;;;;;;;1.87;1.60;;;4.50;79.60;;;;;;5095063;28;20053;-65
2023/03/06 01:48:47;;;;;;;2.13;1.48;;;4.50;79.70;;;;;;5103074;28;20019;-66
2023/03/06 01:51:14;;;;;;;2.55;1.40;;;4.50;79.80;;;;;;5107645;28;20112;-66
2023/03/06 01:53:42;;;;;;;1.70;1.55;;;4.40;79.70;;;;;;5100615;28;20020;-68
2023/03/06 01:56:08;;;;;;;2.08;1.50;;;4.50;79.90;;;;;;5104148;28;20031;-67
2023/03/06 01:58:33;;;;;;;1.48;1.20;;;4.40;79.80;;;;;;5100124;28;20019;-67
2023/03/06 02:00:59;;;;;;;1.88;1.40;;;4.50;79.90;;;;;;5102078;28;20077;-67
2023/03/06 02:03:27;;;;;;;1.60;1.20;;;4.50;79.90;;;;;;5098949;28;20719;-66
2023/03/06 02:05:53;;;;;;;1.92;1.55;;;4.40;79.90;;;;;;5097473;28;20103;-65
2023/03/06 02:08:21;;;;;;;2.28;1.63;;;4.40;79.90;;;;;;5096617;28;20024;-65
2023/03/06 02:11:12;;;;;;;2.35;1.63;;;4.40;79.90;;;;;;5095509;28;20028;-65
2023/03/06 02:13:39;;;;;;;2.95;1.45;;;4.40;80.10;;;;;;5094157;28;20487;-66
2023/03/06 02:16:05;;;;;;;2.45;1.77;;;4.40;80.00;;;;;;5099695;28;20024;-66
2023/03/06 02:18:32;;;;;;;2.97;1.45;;;4.40;80.00;;;;;;5107339;27;20498;-64
2023/03/06 02:21:01;;;;;;;2.40;1.58;;;4.40;80.10;;;;;;5101366;28;20561;-66
2023/03/06 02:23:57;;;;;;;3.42;1.80;;;4.40;80.10;;;;;;5098156;28;20031;-66
2023/03/06 02:26:24;;;;;;;3.00;1.88;;;4.30;80.20;;;;;;5100206;27;20032;-64
2023/03/06 02:28:50;;;;;;;3.25;1.75;;;4.40;80.30;;;;;;5101194;27;20016;-66
2023/03/06 02:31:36;;;;;;;3.92;1.85;;;4.30;80.30;;;;;;5102367;28;20102;-65
2023/03/06 02:34:27;;;;;;;2.72;1.77;;;4.30;80.20;;;;;;5102524;28;20040;-65
2023/03/06 02:36:58;;;;;;;2.83;1.90;;;4.20;80.30;;;;;;5103727;27;20026;-67
2023/03/06 02:39:27;;;;;;;4.18;2.50;;;4.20;80.30;;;;;;5100927;27;20020;-66
2023/03/06 02:41:52;;;;;;;3.38;2.17;;;4.20;80.40;;;;;;5098112;28;20034;-66
2023/03/06 02:44:18;;;;;;;4.05;2.20;;;4.10;80.50;;;;;;5099435;28;20028;-66
2023/03/06 02:46:44;;;;;;;3.70;2.30;;;4.10;80.50;;;;;;5108611;27;20519;-64
2023/03/06 02:49:09;;;;;;;5.65;2.90;;;4.10;80.60;;;;;;5104221;27;20095;-67
2023/03/06 02:51:35;;;;;;;3.97;2.30;;;4.10;80.70;;;;;;5103694;28;20048;-67
2023/03/06 02:54:00;;;;;;;3.40;2.30;;;4.10;80.70;;;;;;5101571;28;20077;-66
2023/03/06 02:56:26;;;;;;;2.30;1.60;;;4.10;80.70;;;;;;5105503;27;20019;-65
2023/03/06 02:58:52;;;;;;;3.33;2.28;;;4.10;80.70;;;;;;5104423;27;20047;-67
2023/03/06 03:01:17;;;;;;;4.50;2.97;;;4.10;80.70;;;;;;5099163;28;20126;-66
2023/03/06 03:03:43;;;;;;;5.05;2.95;;;4.10;80.80;;;;;;5103407;27;20049;-66
2023/03/06 03:06:08;;;;;;;4.50;2.88;;;4.00;80.70;;;;;;5102306;27;20478;-66
2023/03/06 03:08:35;;;;;;;5.20;3.40;;;4.00;80.80;;;;;;5106750;27;20082;-66
2023/03/06 03:11:01;;;;;;;6.75;3.17;;;4.00;80.80;;;;;;5104362;27;20115;-65
2023/03/06 03:13:26;;;;;;;5.00;2.92;;;4.00;81.00;;;;;;5103557;28;20107;-65
2023/03/06 03:16:07;;;;;;;5.55;3.28;;;4.00;81.00;;;;;;5101514;27;20032;-66
2023/03/06 03:18:33;;;;;;;4.78;2.70;;;4.00;81.00;;;;;;5103380;28;20390;-65
2023/03/06 03:20:59;;;;;;;3.00;2.08;;;4.00;81.00;;;;;;5103081;27;20106;-66
2023/03/06 03:23:26;;;;;;;3.90;2.75;;;4.00;81.00;;;;;;5097252;28;20130;-66
2023/03/06 03:25:51;;;;;;;4.72;3.00;;;4.00;81.00;;;;;;5114357;27;20534;-66
2023/03/06 03:28:17;;;;;;;3.90;2.70;;;4.00;81.10;;;;;;5101968;27;20020;-67
2023/03/06 03:30:43;;;;;;;4.47;2.67;;;4.00;81.10;;;;;;5101128;27;20095;-65
2023/03/06 03:33:09;;;;;;;4.18;2.40;;;4.00;81.10;;;;;;5106660;27;20486;-66
2023/03/06 03:35:35;;;;;;;6.43;3.08;;;4.00;81.10;;;;;;5100702;28;20385;-65
2023/03/06 03:38:01;;;;;;;4.68;2.72;;;4.00;81.10;;;;;;5103988;28;20020;-65
2023/03/06 03:40:26;;;;;;;5.05;2.83;;;4.00;81.20;;;;;;5106273;27;20397;-65
2023/03/06 03:42:52;;;;;;;4.63;2.70;;;4.10;81.20;;;;;;5104341;28;20038;-66
2023/03/06 03:45:17;;;;;;;4.75;2.83;;;4.00;81.10;;;;;;5099800;28;20035;-67
2023/03/06 03:47:43;;;;;;;4.82;3.00;;;4.10;81.20;;;;;;5104982;28;20225;-66
2023/03/06 03:50:10;;;;;;;4.90;2.72;;;4.00;81.10;;;;;;5102997;27;20393;-66
2023/03/06 03:52:36;;;;;;;5.28;3.25;;;4.00;81.20;;;;;;5096274;28;20089;-67
2023/03/06 03:55:02;;;;;;;5.53;3.35;;;4.00;81.30;;;;;;5097404;27;20031;-66
2023/03/06 03:57:27;;;;;;;5.95;3.35;;;4.00;81.30;;;;;;5100668;27;20435;-67
2023/03/06 03:59:53;;;;;;;5.53;3.42;;;4.00;81.30;;;;;;5099622;28;20028;-65
2023/03/06 04:02:20;;;;;;;5.10;2.90;;;4.00;81.30;;;;;;5103896;27;20161;-66
2023/03/06 04:04:46;;;;;;;4.60;2.72;;;4.10;81.30;;;;;;5100896;28;20026;-66
2023/03/06 04:07:12;;;;;;;6.10;3.28;;;4.10;81.20;;;;;;5105633;27;20066;-65
2023/03/06 04:09:38;;;;;;;5.45;3.10;;;4.10;81.20;;;;;;5109694;27;20059;-65
2023/03/06 04:12:04;;;;;;;7.00;4.18;;;4.10;81.30;;;;;;5102753;28;20024;-67
2023/03/06 04:14:30;;;;;;;7.18;4.10;;;4.10;81.30;;;;;;5099301;28;20016;-66
2023/03/06 04:16:56;;;;;;;5.45;3.60;;;4.10;81.40;;;;;;5100347;27;20015;-65
2023/03/06 04:19:21;;;;;;;5.97;3.47;;;4.10;81.30;;;;;;5101863;27;20028;-65
2023/03/06 04:21:47;;;;;;;4.78;2.95;;;4.10;81.20;;;;;;5100543;28;20105;-65
2023/03/06 04:24:12;;;;;;;7.18;3.47;;;4.10;81.20;;;;;;5102132;27;20115;-65
2023/03/06 04:26:38;;;;;;;5.82;3.33;;;4.10;81.20;;;;;;5101202;27;20043;-64
2023/03/06 04:29:04;;;;;;;5.13;3.03;;;4.10;81.30;;;;;;5103261;27;20028;-65
2023/03/06 04:31:29;;;;;;;4.45;2.72;;;4.10;81.40;;;;;;5100788;27;20426;-64
2023/03/06 04:33:55;;;;;;;5.22;2.92;;;4.10;81.40;;;;;;5103353;28;20035;-65
2023/03/06 04:36:30;;;;;;;6.88;3.45;;;4.10;81.50;;;;;;5097632;27;20015;-64
2023/03/06 04:38:56;;;;;;;5.57;3.20;;;4.10;81.60;;;;;;5095628;28;20055;-65
2023/03/06 04:41:22;;;;;;;5.15;3.08;;;4.20;81.50;;;;;;5098048;28;20082;-65
2023/03/06 04:43:48;;;;;;;5.85;3.33;;;4.20;81.40;;;;;;5100192;27;20031;-65
2023/03/06 04:46:13;;;;;;;5.00;2.78;;;4.20;81.40;;;;;;5102916;27;20024;-66
2023/03/06 04:48:39;;;;;;;4.60;2.75;;;4.20;81.40;;;;;;5103359;27;20510;-65
2023/03/06 04:51:05;;;;;;;4.40;2.88;;;4.20;81.40;;;;;;5100915;28;20032;-66
2023/03/06 04:53:31;;;;;;;5.57;3.20;;;4.20;81.30;;;;;;5101348;27;20024;-65
2023/03/06 04:55:57;;;;;;;5.43;3.00;;;4.20;81.40;;;;;;5100626;27;20657;-66
2023/03/06 04:58:23;;;;;;;4.25;2.60;;;4.20;81.50;;;;;;5100258;27;20049;-65
2023/03/06 05:00:48;;;;;;;4.22;2.70;;;4.30;81.40;;;;;;5102837;27;20162;-65
2023/03/06 05:03:14;;;;;;;4.63;2.63;;;4.30;81.40;;;;;;5100622;28;20084;-66
2023/03/06 05:05:40;;;;;;;4.90;2.55;;;4.30;81.40;;;;;;5105299;27;20021;-66
2023/03/06 05:08:06;;;;;;;4.88;3.00;;;4.30;81.30;;;;;;5100019;28;20027;-66
2023/03/06 05:10:31;;;;;;;5.80;3.00;;;4.30;81.30;;;;;;5101658;28;20012;-66
2023/03/06 05:12:57;;;;;;;5.25;2.95;;;4.30;81.30;;;;;;5099329;27;20062;-66
2023/03/06 05:15:23;;;;;;;4.35;2.67;;;4.40;81.30;;;;;;5099598;28;20080;-65
2023/03/06 05:17:48;;;;;;;5.00;3.00;;;4.40;81.30;;;;;;5101394;28;20027;-64
2023/03/06 05:20:15;;;;;;;4.05;2.63;;;4.40;81.20;;;;;;5094711;28;20098;-66
2023/03/06 05:22:41;;;;;;;7.80;3.40;;;4.40;81.30;;;;;;5103106;27;20023;-66
2023/03/06 05:25:07;;;;;;;3.92;2.70;;;4.30;81.40;;;;;;5100693;28;20035;-66
2023/03/06 05:27:33;;;;;;;4.50;2.78;;;4.30;81.40;;;;;;5103179;27;20024;-66
2023/03/06 05:29:59;;;;;;;4.82;2.90;;;4.40;81.50;;;;;;5104632;28;20027;-65
2023/03/06 05:32:25;;;;;;;6.15;2.90;;;4.40;81.40;;;;;;5100676;28;20028;-66
2023/03/06 05:34:51;;;;;;;5.32;2.80;;;4.40;81.40;;;;;;5097683;28;20016;-66
2023/03/06 05:37:16;;;;;;;5.57;3.10;;;4.40;81.30;;;;;;5099139;28;20055;-67
2023/03/06 05:39:42;;;;;;;4.28;2.85;;;4.50;81.30;;;;;;5099604;28;20498;-66
2023/03/06 05:42:08;;;;;;;5.13;3.10;;;4.50;81.30;;;;;;5098944;28;20039;-66
2023/03/06 05:44:34;;;;;;;4.68;2.83;;;4.50;81.30;;;;;;5093240;28;20035;-66
2023/03/06 05:47:01;;;;;;;4.68;2.47;;;4.50;81.30;;;;;;5097581;28;20105;-66
2023/03/06 05:49:31;;;;;;;5.47;2.92;;;4.50;81.30;;;;;;5098709;28;20019;-67
2023/03/06 05:51:57;;;;;;;3.88;2.70;;;4.50;81.30;;;;;;5103105;28;20028;-67
2023/03/06 05:54:23;;;;;;;4.28;2.83;;;4.40;81.30;;;;;;5093125;28;20386;-66
2023/03/06 05:56:50;;;;;;;3.97;2.25;;;4.50;81.40;;;;;;5103696;28;20046;-66
2023/03/06 05:59:15;;;;;;;5.50;2.83;;;4.50;81.50;;;;;;5097877;28;20479;-65
2023/03/06 06:01:41;;;;;;;5.43;2.50;;;4.50;81.50;;;;;;5108912;27;20103;-67
2023/03/06 06:04:06;;;;;;;4.22;2.50;;;4.50;81.60;;;;;;5104008;27;20024;-65
2023/03/06 06:06:32;;;;;;;3.38;2.65;;;4.40;81.50;;;;;;5101614;28;20066;-66
2023/03/06 06:08:57;;;;;;;4.05;2.55;;;4.40;81.80;;;;;;5101670;27;20084;-66
2023/03/06 06:11:23;;;;;;;5.97;2.72;;;4.40;81.80;;;;;;5104443;27;20031;-65
2023/03/06 06:13:48;;;;;;;4.30;2.35;;;4.50;81.80;;;;;;5103231;28;20035;-65
2023/03/06 06:16:15;;;;;;;4.00;2.30;;;4.50;81.70;;;;;;5104878;27;20044;-66
2023/03/06 06:18:41;;;;;;;4.05;2.55;;;4.50;81.60;;;;;;5109916;27;20503;-67
2023/03/06 06:21:10;;;;;;;5.15;2.88;;;4.50;81.70;;;;;;5102761;28;20039;-66
2023/03/06 06:23:36;;;;;;;5.07;3.13;;;4.50;81.80;;;;;;5104402;28;20463;-67
2023/03/06 06:26:03;;;;;;;4.43;2.67;;;4.40;81.80;;;;;;5105839;27;20028;-67
2023/03/06 06:28:29;;;;;;;4.03;2.47;;;4.40;81.90;;;;;;5103910;27;20073;-67
2023/03/06 06:30:55;;;;;;;3.92;2.28;;;4.50;81.90;;;;;;5106356;28;20394;-68
2023/03/06 06:33:22;;;;;;;2.97;1.95;;;4.50;81.80;;;;;;5106358;28;20110;-68
2023/03/06 06:35:48;;;;;;;3.92;2.38;;;4.50;81.80;;;;;;5103659;27;20047;-67
2023/03/06 06:38:14;;;;;;;3.38;1.80;;;4.50;81.90;;;;;;5107074;27;20512;-68
2023/03/06 06:40:39;;;;;;;4.13;2.20;;;4.50;82.00;;;;;;5097887;28;20103;-67
2023/03/06 06:43:05;;;;;;;3.47;2.00;;;4.50;82.00;;;;;;5102769;28;20042;-67
2023/03/06 06:45:30;;;;;;;3.40;2.20;;;4.50;82.00;;;;;;5096991;28;20027;-66
2023/03/06 06:47:56;;;;;;;3.95;2.42;;;4.50;82.00;;;;;;5105062;28;20023;-67
2023/03/06 06:50:21;;;;;;;3.50;2.40;;;4.60;82.00;;;;;;5105770;27;20542;-66
2023/03/06 06:52:47;;;;;;;3.78;2.42;;;4.60;81.90;;;;;;5111813;27;20570;-68
2023/03/06 06:55:13;;;;;;;3.60;2.10;;;4.60;81.70;;;;;;5102865;27;20476;-67
2023/03/06 06:57:40;;;;;;;3.65;2.50;;;4.60;81.80;;;;;;5103334;27;20110;-67
2023/03/06 07:00:06;;;;;;;4.20;2.22;;;4.60;81.70;;;;;;5104126;27;20031;-68
2023/03/06 07:02:32;;;;;;;4.85;2.20;;;4.60;81.80;;;;;;5101828;28;20164;-67
2023/03/06 07:04:58;;;;;;;3.55;1.98;;;4.60;81.80;;;;;;5109605;27;20102;-67
2023/03/06 07:07:23;;;;;;;3.20;2.20;;;4.60;81.90;;;;;;5104501;27;20383;-68
2023/03/06 07:09:49;;;;;;;2.65;1.92;;;4.60;81.90;;;;;;5101496;28;20669;-67
2023/03/06 07:12:15;;;;;;;2.97;1.80;;;4.60;81.90;;;;;;5098422;27;20027;-68
2023/03/06 07:14:41;;;;;;;4.15;1.70;;;4.70;81.90;;;;;;5097272;27;20020;-67
2023/03/06 07:17:07;;;;;;;3.45;2.10;;;4.70;81.80;;;;;;5102302;27;20383;-67
2023/03/06 07:19:33;;;;;;;2.22;1.90;;;4.70;81.80;;;;;;5104384;27;20385;-67
2023/03/06 07:21:59;;;;;;;3.05;2.15;;;4.80;81.70;;;;;;5100000;27;20035;-67
2023/03/06 07:24:25;;;;;;;2.33;1.63;;;4.80;81.50;;;;;;5105155;28;20147;-66
2023/03/06 07:26:51;;;;;;;1.83;1.50;;;4.90;81.60;;;;;;5100913;28;20390;-68
2023/03/06 07:29:17;;;;;;;2.22;1.55;;;5.00;81.50;;;;;;5102491;27;20019;-66
2023/03/06 07:31:43;;;;;;;2.22;1.52;;;5.00;81.30;;;;;;5098557;27;20703;-67
2023/03/06 07:34:12;;;;;;;2.10;1.60;;;5.10;81.30;;;;;;5098829;27;20099;-66
2023/03/06 07:36:39;;;;;;;1.40;1.30;;;5.00;81.10;;;;;;5098419;27;20024;-69
2023/03/06 07:39:05;;;;;;;1.55;1.40;;;5.10;81.30;;;;;;5102005;27;20097;-67
2023/03/06 07:41:31;;;;;;;1.65;1.30;;;5.10;81.40;;;;;;5102630;28;20398;-68
2023/03/06 07:43:57;;;;;;;1.83;1.42;;;5.10;81.30;;;;;;5098658;27;20035;-69
2023/03/06 07:46:22;;;;;;;1.13;1.02;;;5.10;81.30;;;;;;5103653;27;20061;-69
2023/03/06 07:48:48;;;;;;;1.55;1.40;;;5.20;81.30;;;;;;5098678;28;20032;-68
2023/03/06 07:51:16;;;;;;;2.08;1.60;;;5.20;81.10;;;;;;5103606;28;20490;-68
2023/03/06 07:53:43;;;;;;;1.58;1.45;;;5.20;81.20;;;;;;5099533;27;20017;-68
2023/03/06 07:56:10;;;;;;;1.58;1.45;;;5.30;81.10;;;;;;5103637;27;20030;-69
2023/03/06 07:58:38;;;;;;;2.90;1.67;;;5.30;81.00;;;;;;5096150;27;20028;-68
2023/03/06 08:01:05;;;;;;;1.77;1.48;;;5.30;80.90;;;;;;5099354;27;20094;-68
2023/03/06 08:03:31;;;;;;;1.45;1.30;;;5.30;80.80;;;;;;5098726;28;20492;-68
2023/03/06 08:06:16;;;;;;;3.47;1.67;;;5.40;80.80;;;;;;5098540;27;20058;-68
2023/03/06 08:08:43;;;;;;;2.13;1.50;;;5.50;80.80;;;;;;5099733;27;20073;-66
2023/03/06 08:11:11;;;;;;;1.42;1.27;;;5.60;80.70;;;;;;5097900;28;20023;-68
2023/03/06 08:13:37;;;;;;;1.42;1.27;;;5.70;80.50;;;;;;5098673;27;20427;-68
2023/03/06 08:16:03;;;;;;;1.30;1.20;;;5.70;80.30;;;;;;5098446;28;20028;-68
2023/03/06 08:18:28;;;;;;;1.13;1.02;;;5.80;80.20;;;;;;5095627;27;20019;-68
2023/03/06 08:21:02;;;;;;;1.45;1.30;;;5.80;80.00;;;;;;5101192;27;20034;-68
2023/03/06 08:23:28;;;;;;;2.50;1.05;;;5.90;79.90;;;;;;5095464;28;20027;-67
2023/03/06 08:25:58;;;;;;;1.10;1.00;;;5.90;79.90;;;;;;5095060;28;20500;-68
2023/03/06 08:28:24;;;;;;;2.15;1.20;;;6.00;79.60;;;;;;5098492;27;20019;-69
2023/03/06 08:30:50;;;;;;;1.27;1.10;;;6.00;79.50;;;;;;5098103;28;20079;-67
2023/03/06 08:33:15;;;;;;;1.10;1.00;;;6.10;79.50;;;;;;5099016;27;20023;-68
2023/03/06 08:35:41;;;;;;;2.33;1.10;;;6.20;79.50;;;;;;5096841;28;20031;-69
2023/03/06 08:38:07;;;;;;;1.75;0.95;;;6.20;79.20;;;;;;5097115;28;20553;-68
2023/03/06 08:40:32;;;;;;;0.98;0.88;;;6.20;79.10;;;;;;5092948;28;20016;-68
2023/03/06 08:42:58;;;;;;;1.00;0.90;;;6.30;79.10;;;;;;5099235;28;20031;-69
2023/03/06 08:45:24;;;;;;;1.48;0.80;;;6.30;79.00;;;;;;5094535;28;20023;-67
2023/03/06 08:47:49;;;;;;;1.95;1.00;;;6.30;79.00;;;;;;5093805;28;20024;-68
2023/03/06 08:50:15;;;;;;;2.03;1.00;;;6.40;79.10;;;;;;5100615;27;20474;-66
2023/03/06 08:52:41;;;;;;;1.13;1.02;;;6.30;78.90;;;;;;5095253;27;20577;-68
2023/03/06 08:55:07;;;;;;;0.98;0.93;;;6.30;78.80;;;;;;5100205;28;20051;-68
2023/03/06 08:57:32;;;;;;;1.50;1.02;;;6.30;78.70;;;;;;5098165;28;20027;-68
2023/03/06 08:59:58;;;;;;;2.17;1.00;;;6.30;79.00;;;;;;5100057;27;20020;-68
2023/03/06 09:02:23;;;;;;;0.85;0.80;;;6.20;79.00;;;;;;5099949;27;20024;-66
2023/03/06 09:04:49;;;;;;;0.70;0.70;;;6.30;79.00;;;;;;5103711;28;20032;-69
2023/03/06 09:07:15;;;;;;;1.27;0.90;;;6.20;78.70;;;;;;5099620;28;20038;-68
2023/03/06 09:09:40;;;;;;;1.02;0.93;;;6.20;78.70;;;;;;5101115;28;20019;-66
2023/03/06 09:12:06;;;;;;;0.70;0.70;;;6.20;78.80;;;;;;5099136;28;20023;-66
2023/03/06 09:14:32;;;;;;;0.70;0.70;;;6.30;78.80;;;;;;5100858;28;20770;-65
2023/03/06 09:16:57;;;;;;;0.77;0.70;;;6.30;78.60;;;;;;5102338;28;20394;-65
2023/03/06 09:19:23;;;;;;;1.25;0.73;;;6.30;78.40;;;;;;5116974;27;20108;-69
2023/03/06 09:21:48;;;;;;;0.70;0.70;;;6.30;78.30;;;;;;5093124;28;20030;-67
2023/03/06 09:24:14;;;;;;;0.77;0.77;;;6.40;78.40;;;;;;5107281;28;20051;-65
2023/03/06 09:26:40;;;;;;;0.80;0.80;;;6.50;78.20;;;;;;5101707;28;20032;-66
2023/03/06 09:29:06;;;;;;;0.90;0.70;;;6.60;78.00;;;;;;5116227;28;20087;-68
2023/03/06 09:31:31;;;;;;;0.75;0.60;;;6.50;77.90;;;;;;5102718;28;20070;-67
2023/03/06 09:33:57;;;;;;;0.82;0.80;;;6.60;77.90;;;;;;5119702;28;20051;-67
2023/03/06 09:36:23;;;;;;;0.70;0.60;;;6.60;77.80;;;;;;5115372;27;20462;-66
2023/03/06 09:38:49;;;;;;;0.70;0.70;;;6.70;77.60;;;;;;5113051;27;20389;-66
2023/03/06 09:41:14;;;;;;;0.68;0.68;;;6.70;77.50;;;;;;5116217;27;20089;-67
2023/03/06 09:43:43;;;;;;;0.52;0.52;;;6.70;77.40;;;;;;5111575;28;20611;-67
2023/03/06 09:46:26;;;;;;;0.50;0.50;;;6.80;77.30;;;;;;5105631;28;20040;-66
2023/03/06 09:49:35;;;;;;;1.17;0.80;;;6.80;77.00;;;;;;5119587;27;20084;-67
2023/03/06 09:52:25;;;;;;;1.42;0.68;;;6.90;76.90;;;;;;5114515;27;20119;-66
2023/03/06 09:54:57;;;;;;;0.60;0.60;;;7.10;76.80;;;;;;5104095;27;20108;-66
2023/03/06 09:57:30;;;;;;;0.55;0.52;;;7.10;76.30;;;;;;5120253;27;20494;-66
2023/03/06 10:00:00;;;;;;;0.60;0.60;;;7.20;76.40;;;;;;5125278;27;20023;-67
2023/03/06 10:02:29;;;;;;;0.70;0.70;;;7.20;75.90;;;;;;5115999;27;20031;-67
2023/03/06 10:04:59;;;;;;;0.55;0.55;;;7.20;75.60;;;;;;5119071;27;20035;-66
2023/03/06 10:07:54;;;;;;;0.50;0.50;;;7.10;75.50;;;;;;5106624;28;20103;-68
2023/03/06 10:10:24;;;;;;;0.50;0.50;;;7.20;75.60;;;;;;5115676;27;20058;-66
2023/03/06 10:13:19;;;;;;;0.50;0.50;;;7.20;75.50;;;;;;5106526;27;20026;-63
2023/03/06 10:15:46;;;;;;;0.70;0.70;;;7.30;75.40;;;;;;5106307;27;20023;-68
2023/03/06 10:18:12;;;;;;;0.60;0.60;;;7.50;75.20;;;;;;5110349;27;20469;-67
2023/03/06 10:20:56;;;;;;;0.77;0.60;;;7.60;74.80;;;;;;5103692;27;20058;-68
2023/03/06 10:23:28;;;;;;;0.60;0.60;;;7.60;74.60;;;;;;5117631;27;20031;-67
2023/03/06 10:26:00;;;;;;;0.85;0.50;;;7.70;74.60;;;;;;5108480;27;20026;-67
2023/03/06 10:28:35;;;;;;;0.52;0.52;;;7.70;74.50;;;;;;5108033;27;20015;-67
2023/03/06 10:31:09;;;;;;;0.75;0.63;;;7.70;74.30;;;;;;5110323;27;20034;-67
2023/03/06 10:33:56;;;;;;;0.60;0.60;;;7.70;74.60;;;;;;5111520;27;20381;-67
2023/03/06 10:36:27;;;;;;;1.33;0.60;;;7.70;73.80;;;;;;5106211;27;20494;-67
2023/03/06 10:38:57;;;;;;;0.68;0.60;;;7.70;73.80;;;;;;5110860;27;20092;-66
2023/03/06 10:41:26;;;;;;;0.70;0.60;;;7.80;73.50;;;;;;5107331;28;20081;-66
2023/03/06 10:44:04;;;;;;;0.50;0.50;;;7.80;73.30;;;;;;5096670;28;20039;-68
2023/03/06 10:46:42;;;;;;;1.23;0.43;;;8.00;73.40;;;;;;5099202;28;20024;-67
2023/03/06 10:49:25;;;;;;;0.73;0.50;;;8.00;72.90;;;;;;5106019;28;20096;-67
2023/03/06 10:52:05;;;;;;;;;;;8.10;72.00;;;;;;5110947;28;20024;-67
2023/03/06 10:54:37;;;;;;;0.65;0.65;;;8.20;72.00;;;;;;5109425;27;19907;-66
2023/03/06 10:57:38;;;;;;;0.60;0.60;;;8.30;71.60;;;;;;5111862;27;20411;-67
2023/03/06 11:00:22;;;;;;;0.40;0.40;;;8.40;71.30;;;;;;5063862;28;20598;-67
2023/03/06 11:03:04;;;;;;;1.40;0.50;;;8.40;71.00;;;;;;5093854;28;20399;-66
2023/03/06 11:05:29;;;;;;;0.50;0.50;;;8.60;70.80;;;;;;5100991;27;20031;-66
2023/03/06 11:07:58;;;;;;;0.40;0.40;;;8.70;70.40;;;;;;5123903;27;20027;-68
2023/03/06 11:10:25;;;;;;;0.50;0.50;;;8.70;70.30;;;;;;5119611;27;20039;-67
2023/03/06 11:13:06;;;;;;;0.63;0.60;;;8.70;69.90;;;;;;5095797;28;20047;-65
2023/03/06 11:15:32;;;;;;;0.47;0.47;;;8.80;70.40;;;;;;5107519;28;20481;-66
2023/03/06 11:18:06;;;;;;;0.60;0.60;;;8.80;70.80;;;;;;5095480;28;20115;-65
2023/03/06 11:20:43;;;;;;;3.20;0.60;;;8.80;70.00;;;;;;5110574;28;20040;-67
2023/03/06 11:23:17;;;;;;;0.75;0.70;;;8.90;69.80;;;;;;5095182;28;20043;-67
2023/03/06 11:25:51;;;;;;;0.75;0.60;;;9.00;68.80;;;;;;5101283;28;20024;-67
2023/03/06 11:28:21;;;;;;;0.57;0.57;;;9.10;69.00;;;;;;5095107;28;20080;-67
2023/03/06 11:30:56;;;;;;;1.35;0.60;;;9.20;69.00;;;;;;5094702;28;20073;-67
2023/03/06 11:33:32;;;;;;;0.95;0.60;;;9.30;68.80;;;;;;5094132;28;20240;-65
2023/03/06 11:36:32;;;;;;;0.50;0.50;;;9.40;68.40;;;;;;5105654;28;20062;-66
2023/03/06 11:38:58;;;;;;;0.60;0.60;;;9.30;68.10;;;;;;5093509;28;20036;-66
2023/03/06 11:41:53;;;;;;;0.70;0.70;;;9.30;68.20;;;;;;5092763;28;20506;-67
2023/03/06 11:44:51;;;;;;;0.50;0.50;;;9.20;68.20;;;;;;5097905;28;20043;-65
2023/03/06 11:47:28;;;;;;;0.70;0.60;;;9.10;68.30;;;;;;5075324;28;20414;-66
2023/03/06 11:50:18;;;;;;;0.57;0.57;;;9.10;68.50;;;;;;5096837;28;20046;-67
2023/03/06 11:52:57;;;;;;;0.57;0.50;;;9.20;68.40;;;;;;5092064;28;20089;-67
2023/03/06 11:55:39;;;;;;;0.50;0.50;;;9.20;68.20;;;;;;5096723;28;20486;-66
2023/03/06 11:58:17;;;;;;;0.45;0.45;;;9.20;67.90;;;;;;5092285;28;20028;-66
2023/03/06 12:01:10;;;;;;;0.50;0.50;;;9.20;67.80;;;;;;5096245;27;20036;-65
2023/03/06 12:04:13;;;;;;;0.47;0.47;;;9.20;67.90;;;;;;5099665;28;20099;-66
2023/03/06 12:06:52;;;;;;;0.50;0.50;;;9.20;67.80;;;;;;5108968;27;20073;-65
2023/03/06 12:09:45;;;;;;;0.57;0.57;;;9.20;67.70;;;;;;5104537;27;20367;-66
2023/03/06 12:12:31;;;;;;;2.05;0.50;;;9.20;67.00;;;;;;5115664;27;20146;-66
2023/03/06 12:15:06;;;;;;;0.75;0.60;;;9.30;67.20;;;;;;5107935;28;20431;-66
2023/03/06 12:18:12;;;;;;;0.73;0.70;;;9.20;66.30;;;;;;5101139;28;20023;-66
2023/03/06 12:21:22;;;;;;;0.50;0.50;;;9.30;66.80;;;;;;5103066;27;20040;-66
2023/03/06 12:24:02;;;;;;;0.60;0.60;;;9.20;65.90;;;;;;5080016;28;20028;-65
2023/03/06 12:26:41;;;;;;;0.50;0.50;;;9.20;66.40;;;;;;5076846;28;20636;-65
2023/03/06 12:29:42;;;;;;;0.50;0.50;;;9.20;66.60;;;;;;5086719;27;20032;-67
2023/03/06 12:32:41;;;;;;;0.50;0.50;;;9.20;66.40;;;;;;5099631;27;20111;-65
2023/03/06 12:35:25;;;;;;;0.50;0.50;;;9.20;66.50;;;;;;5094062;27;20520;-66
2023/03/06 12:38:22;;;;;;;0.70;0.70;;;9.40;66.60;;;;;;5102283;27;20083;-66
2023/03/06 12:40:48;;;;;;;0.50;0.50;;;9.50;66.50;;;;;;5101776;27;20028;-65
2023/03/06 12:43:32;;;;;;;0.60;0.60;;;9.50;66.10;;;;;;5102109;27;20039;-67
2023/03/06 12:46:08;;;;;;;0.50;0.50;;;9.50;65.90;;;;;;5100095;27;20122;-67
2023/03/06 12:48:36;;;;;;;0.63;0.55;;;9.60;66.30;;;;;;5101915;28;20034;-66
2023/03/06 12:51:05;;;;;;;0.60;0.60;;;9.70;66.00;;;;;;5101629;28;20032;-64
2023/03/06 12:53:32;;;;;;;0.88;0.70;;;9.80;65.60;;;;;;5100260;28;20027;-65
2023/03/06 12:56:00;;;;;;;0.82;0.60;;;9.90;65.90;;;;;;5104002;28;20031;-66
2023/03/06 12:58:28;;;;;;;0.60;0.60;;;10.00;65.80;;;;;;5102609;28;20023;-66
2023/03/06 13:01:18;;;;;;;0.60;0.60;;;10.10;65.90;;;;;;5101881;28;20020;-69
2023/03/06 13:04:14;;;;;;;0.60;0.60;;;10.10;65.60;;;;;;5098397;27;20023;-67
2023/03/06 13:06:47;;;;;;;1.25;0.82;;;10.30;65.70;;;;;;5102505;27;20028;-67
2023/03/06 13:09:30;;;;;;;0.70;0.70;;;10.40;65.30;;;;;;5104469;28;20038;-66
2023/03/06 13:12:24;;;;;;;1.02;0.68;;;10.40;65.50;;;;;;5097699;28;20036;-68